createdAt,value
2023-02-09T00:02:25.338Z,24.23
2023-02-09T00:04:53.646Z,22.35
2023-02-09T00:07:21.810Z,21.40
2023-02-09T00:09:55.154Z,25.23
2023-02-09T00:12:41.254Z,23.50
2023-02-09T00:15:10.089Z,23.30
2023-02-09T00:17:39.581Z,22.80
2023-02-09T00:20:09.620Z,23.50
2023-02-09T00:22:37.750Z,24.33
2023-02-09T00:25:06.670Z,24.58
2023-02-09T00:27:35.868Z,23.33
2023-02-09T00:30:05.586Z,22.67
2023-02-09T00:32:34.354Z,23.95
2023-02-09T00:35:07.762Z,23.20
2023-02-09T00:37:36.951Z,22.98
2023-02-09T00:40:06.660Z,22.77
2023-02-09T00:42:38.061Z,23.40
2023-02-09T00:45:07.820Z,23.20
2023-02-09T00:47:36.056Z,23.52
2023-02-09T00:50:08.082Z,23.65
2023-02-09T00:52:36.823Z,22.50
2023-02-09T00:55:05.451Z,22.85
2023-02-09T00:57:34.160Z,22.73
2023-02-09T01:00:02.343Z,21.73
2023-02-09T05:04:21.597Z,19.17
2023-02-09T05:06:49.750Z,20.05
2023-02-09T05:09:17.939Z,19.00
2023-02-09T05:11:48.456Z,19.58
2023-02-09T05:14:16.791Z,19.00
2023-02-09T05:16:45.066Z,19.92
2023-02-09T05:19:13.993Z,19.40
2023-02-09T05:21:43.427Z,19.10
2023-02-09T05:24:11.697Z,19.88
2023-02-09T05:26:40.043Z,20.50
2023-02-09T05:29:08.366Z,20.30
2023-02-09T05:31:36.725Z,19.05
2023-02-09T05:34:04.826Z,21.15
2023-02-09T05:36:33.154Z,19.70
2023-02-09T05:39:02.779Z,20.98
2023-02-09T05:41:48.185Z,19.63
2023-02-09T05:44:16.381Z,20.88
2023-02-09T05:46:44.716Z,20.65
2023-02-09T05:49:12.857Z,20.50
2023-02-09T05:51:40.975Z,21.10
2023-02-09T05:54:10.487Z,20.77
2023-02-09T05:56:38.883Z,19.10
2023-02-09T05:59:07.110Z,19.15
2023-02-09T06:01:35.459Z,20.65
2023-02-09T06:04:06.347Z,20.77
2023-02-09T06:06:34.438Z,20.75
2023-02-09T06:09:02.715Z,21.05
2023-02-09T06:11:32.445Z,23.15
2023-02-09T06:14:00.616Z,21.00
2023-02-09T06:16:28.888Z,21.85
2023-02-09T06:18:56.971Z,20.20
2023-02-09T06:21:25.172Z,21.77
2023-02-09T06:23:53.381Z,20.52
2023-02-09T06:26:21.686Z,19.92
2023-02-09T06:28:51.371Z,21.95
2023-02-09T06:31:19.648Z,20.40
2023-02-09T06:33:47.971Z,21.67
2023-02-09T06:36:16.232Z,21.25
2023-02-09T06:38:44.412Z,19.80
2023-02-09T06:41:12.781Z,21.75
2023-02-09T06:43:42.964Z,22.42
2023-02-09T06:46:14.399Z,21.90
2023-02-09T06:48:42.695Z,22.20
2023-02-09T06:51:12.040Z,22.13
2023-02-09T06:53:40.914Z,21.38
2023-02-09T06:56:09.547Z,20.00
2023-02-09T06:58:38.734Z,22.55
2023-02-09T07:01:08.251Z,21.58
2023-02-09T07:03:38.606Z,20.85
2023-02-09T07:06:09.087Z,21.13
2023-02-09T07:08:37.791Z,19.15
2023-02-09T07:11:07.894Z,20.05
2023-02-09T07:13:36.688Z,20.55
2023-02-09T07:16:07.031Z,20.42
2023-02-09T07:18:35.788Z,20.38
2023-02-09T07:21:07.920Z,22.00
2023-02-09T07:23:36.860Z,20.67
2023-02-09T07:26:13.211Z,19.53
2023-02-09T07:28:42.034Z,21.17
2023-02-09T07:31:12.268Z,20.27
2023-02-09T07:33:40.796Z,19.83
2023-02-09T07:36:13.123Z,20.05
2023-02-09T07:38:42.006Z,19.75
2023-02-09T07:41:15.660Z,20.20
2023-02-09T07:43:44.043Z,21.13
2023-02-09T07:46:15.276Z,21.25
2023-02-09T07:48:43.766Z,21.10
2023-02-09T07:51:16.481Z,21.70
2023-02-09T07:53:44.779Z,23.05
2023-02-09T07:56:13.328Z,20.13
2023-02-09T07:58:41.771Z,22.40
2023-02-09T08:01:14.381Z,21.02
2023-02-09T08:03:45.044Z,21.90
2023-02-09T08:06:19.665Z,21.50
2023-02-09T08:08:49.046Z,21.92
2023-02-09T08:11:24.972Z,24.23
2023-02-09T08:13:54.441Z,23.20
2023-02-09T08:16:26.173Z,21.02
2023-02-09T08:18:58.395Z,23.45
2023-02-09T08:21:32.872Z,22.75
2023-02-09T08:24:01.633Z,19.50
2023-02-09T08:26:30.502Z,19.95
2023-02-09T08:28:59.736Z,19.25
2023-02-09T08:31:28.214Z,21.52
2023-02-09T08:33:56.492Z,22.33
2023-02-09T08:36:24.893Z,20.65
2023-02-09T08:38:54.522Z,20.23
2023-02-09T08:41:22.831Z,21.70
2023-02-09T08:43:52.532Z,19.20
2023-02-09T08:46:20.937Z,19.63
2023-02-09T08:48:49.459Z,22.98
2023-02-09T08:51:17.999Z,19.67
2023-02-09T08:53:52.307Z,19.92
2023-02-09T08:56:23.578Z,18.63
2023-02-09T08:58:51.850Z,19.60
2023-02-09T09:01:20.082Z,20.23
2023-02-09T09:03:48.356Z,19.85
2023-02-09T09:06:16.609Z,19.15
2023-02-09T09:08:45.233Z,20.55
2023-02-09T09:11:14.682Z,19.92
2023-02-09T09:13:44.502Z,19.05
2023-02-09T09:16:16.793Z,20.95
2023-02-09T09:18:45.634Z,19.17
2023-02-09T09:21:14.037Z,19.02
2023-02-09T09:23:42.271Z,20.48
2023-02-09T09:26:11.263Z,19.50
2023-02-09T09:28:39.791Z,20.83
2023-02-09T09:31:14.653Z,19.25
2023-02-09T09:33:43.660Z,19.67
2023-02-09T09:36:14.604Z,19.10
2023-02-09T09:38:43.305Z,20.27
2023-02-09T09:41:22.259Z,19.40
2023-02-09T09:43:51.766Z,18.55
2023-02-09T09:46:27.705Z,18.85
2023-02-09T09:48:57.998Z,19.77
2023-02-09T09:51:40.615Z,19.10
2023-02-09T09:54:17.065Z,17.88
2023-02-09T09:56:45.225Z,19.30
2023-02-09T09:59:17.880Z,17.67
2023-02-09T15:05:44.564Z,12.98
2023-02-09T15:08:16.647Z,12.77
2023-02-09T15:10:47.836Z,13.23
2023-02-09T15:13:16.537Z,14.90
2023-02-09T15:15:46.313Z,14.07
2023-02-09T15:18:19.870Z,15.35
2023-02-09T15:20:50.446Z,22.20
2023-02-09T15:23:19.105Z,15.25
2023-02-09T15:25:48.037Z,22.05
2023-02-09T15:28:24.694Z,20.70
2023-02-09T15:30:52.916Z,17.25
2023-02-09T15:33:21.180Z,16.45
2023-02-09T15:35:51.163Z,16.92
2023-02-09T15:38:19.851Z,16.35
2023-02-09T15:41:07.276Z,21.20
2023-02-09T15:43:53.183Z,16.95
2023-02-09T15:46:39.171Z,21.73
2023-02-09T15:49:07.620Z,16.98
2023-02-09T15:51:39.769Z,16.27
2023-02-09T15:54:12.368Z,18.23
2023-02-09T15:56:41.012Z,16.70
2023-02-09T15:59:17.569Z,15.85
2023-02-09T16:01:45.872Z,17.77
2023-02-09T16:04:16.772Z,14.38
2023-02-09T16:06:50.021Z,15.43
2023-02-09T16:09:21.273Z,15.80
2023-02-09T16:11:50.162Z,16.48
2023-02-09T16:14:21.176Z,16.85
2023-02-09T16:16:50.119Z,18.25
2023-02-09T16:19:19.133Z,16.98
2023-02-09T16:21:53.171Z,18.25
2023-02-09T16:24:27.523Z,18.27
2023-02-09T16:26:56.008Z,16.15
2023-02-09T16:29:25.876Z,18.77
2023-02-09T16:31:54.440Z,17.70
2023-02-09T16:34:22.744Z,19.00
2023-02-09T16:36:52.344Z,16.58
2023-02-09T16:39:22.598Z,15.60
2023-02-09T16:41:51.582Z,18.25
2023-02-09T16:44:22.567Z,17.17
2023-02-09T16:46:53.441Z,17.13
2023-02-09T16:49:35.666Z,18.17
2023-02-09T16:52:12.503Z,19.97
2023-02-09T16:54:44.530Z,18.40
2023-02-09T16:57:14.964Z,20.15
2023-02-09T16:59:43.143Z,18.13
2023-02-09T17:02:31.776Z,17.20
2023-02-09T17:05:01.715Z,18.13
2023-02-09T17:07:39.772Z,16.42
2023-02-09T17:10:18.534Z,16.40
2023-02-09T17:12:46.727Z,16.67
2023-02-09T17:15:29.006Z,16.83
2023-02-09T17:18:02.815Z,15.93
2023-02-09T17:20:38.214Z,16.80
2023-02-09T17:23:07.935Z,17.10
2023-02-09T17:25:36.166Z,17.58
2023-02-09T17:28:04.490Z,17.13
2023-02-09T17:30:36.251Z,16.45
2023-02-09T17:33:07.208Z,16.95
2023-02-09T17:36:10.029Z,17.85
2023-02-09T17:38:32.215Z,17.80
2023-02-09T17:41:03.034Z,16.98
2023-02-09T17:43:31.448Z,16.75
2023-02-09T17:45:59.907Z,16.88
2023-02-09T17:48:28.180Z,16.30
2023-02-09T17:50:58.084Z,17.58
2023-02-09T17:53:29.808Z,17.00
2023-02-09T17:55:58.283Z,16.02
2023-02-09T17:58:26.593Z,17.38
2023-02-09T18:00:55.978Z,17.40
2023-02-09T18:03:26.395Z,18.98
2023-02-09T18:05:58.283Z,23.40
2023-02-09T18:08:28.308Z,21.07
2023-02-09T18:10:58.873Z,18.25
2023-02-09T18:13:27.690Z,19.55
2023-02-09T18:15:56.276Z,19.48
2023-02-09T18:18:24.679Z,21.13
2023-02-09T18:20:53.757Z,19.80
2023-02-09T18:23:23.510Z,18.10
2023-02-09T18:25:53.391Z,18.48
2023-02-09T18:28:21.697Z,17.27
2023-02-09T18:30:50.076Z,19.13
2023-02-09T18:33:18.869Z,19.65
2023-02-09T18:35:47.387Z,18.27
2023-02-09T18:38:16.963Z,17.00
2023-02-09T18:40:45.256Z,18.08
2023-02-09T18:43:17.484Z,18.33
2023-02-09T18:45:49.259Z,18.75
2023-02-09T18:48:17.776Z,19.17
2023-02-09T18:50:46.067Z,18.77
2023-02-09T18:53:18.869Z,18.45
2023-02-09T18:58:21.274Z,18.63
2023-02-09T19:00:49.744Z,19.58
2023-02-09T19:03:19.998Z,18.48
2023-02-09T19:05:49.469Z,20.20
2023-02-09T19:08:32.124Z,18.55
2023-02-09T19:11:00.426Z,17.95
2023-02-09T19:13:33.820Z,19.23
2023-02-09T19:16:04.104Z,17.70
2023-02-09T19:18:34.415Z,17.25
2023-02-09T19:21:05.582Z,16.77
2023-02-09T19:23:33.880Z,16.48
2023-02-09T19:26:03.772Z,17.35
2023-02-09T19:28:35.259Z,17.40
2023-02-09T19:31:11.708Z,17.92
2023-02-09T19:33:40.053Z,18.23
2023-02-09T19:36:22.780Z,18.48
2023-02-09T19:38:51.224Z,24.83
2023-02-09T19:41:23.294Z,20.85
2023-02-09T19:43:55.986Z,17.63
2023-02-09T19:46:27.137Z,17.88
2023-02-09T19:48:58.244Z,19.75
2023-02-09T19:51:26.890Z,19.25
2023-02-09T19:53:55.292Z,18.30
2023-02-09T19:56:28.128Z,20.33
2023-02-09T19:58:57.782Z,18.15
2023-02-09T20:01:26.868Z,19.55
2023-02-09T20:03:55.643Z,19.48
2023-02-09T20:06:25.184Z,20.73
2023-02-09T20:08:54.117Z,19.63
2023-02-09T20:11:23.788Z,20.60
2023-02-09T20:13:53.502Z,21.13
2023-02-09T20:16:25.318Z,21.10
2023-02-09T20:18:54.343Z,21.20
2023-02-09T20:21:26.580Z,20.08
2023-02-09T20:23:55.732Z,20.73
2023-02-09T20:26:28.966Z,22.25
2023-02-09T20:28:58.014Z,21.05
2023-02-09T20:31:29.865Z,20.88
2023-02-09T20:33:58.151Z,19.77
2023-02-09T20:36:27.929Z,20.38
2023-02-09T20:38:56.175Z,20.23
2023-02-09T20:41:24.462Z,21.63
2023-02-09T20:44:10.158Z,20.30
2023-02-09T20:46:56.693Z,22.15
2023-02-09T20:49:29.873Z,19.73
2023-02-09T20:51:58.440Z,20.73
2023-02-09T20:54:27.227Z,20.17
2023-02-09T20:56:55.451Z,20.15
2023-02-09T20:59:23.604Z,21.23
2023-02-09T21:01:53.101Z,19.13
2023-02-09T21:04:21.394Z,18.15
2023-02-09T21:06:49.738Z,18.42
2023-02-09T21:09:19.067Z,20.02
2023-02-09T21:11:47.676Z,18.70
2023-02-09T21:14:27.122Z,18.83
2023-02-09T21:17:02.534Z,18.60
2023-02-09T21:19:31.212Z,18.48
2023-02-09T21:21:59.290Z,19.23
2023-02-09T21:24:27.568Z,18.52
2023-02-09T21:26:55.663Z,20.00
2023-02-09T21:29:24.194Z,20.27
2023-02-09T21:31:52.674Z,19.42
2023-02-09T21:34:23.530Z,20.13
2023-02-09T21:36:53.776Z,20.27
2023-02-09T21:39:21.964Z,21.13
2023-02-09T21:42:07.741Z,19.98
2023-02-09T21:44:37.875Z,20.50
2023-02-09T21:47:06.334Z,22.27
2023-02-09T21:49:35.945Z,20.08
2023-02-09T21:52:06.385Z,21.27
2023-02-09T21:54:36.975Z,18.27
2023-02-09T21:57:05.424Z,21.05
2023-02-09T21:59:33.539Z,21.05
2023-02-09T22:02:02.128Z,20.73
2023-02-09T22:04:30.264Z,22.13
2023-02-09T22:06:59.741Z,22.13
2023-02-09T22:09:30.645Z,22.67
2023-02-09T22:11:58.805Z,22.55
2023-02-09T22:14:26.952Z,20.63
2023-02-09T22:16:55.328Z,20.05
2023-02-09T22:19:24.744Z,22.08
2023-02-09T22:21:53.267Z,21.63
2023-02-09T22:24:22.860Z,21.08
2023-02-09T22:26:51.018Z,20.70
2023-02-09T22:29:19.475Z,21.00
2023-02-09T22:31:47.817Z,21.65
2023-02-09T22:34:18.231Z,20.70
2023-02-09T22:36:46.408Z,20.55
2023-02-09T22:39:17.630Z,20.08
2023-02-09T22:41:48.402Z,21.15
2023-02-09T22:44:19.475Z,20.33
2023-02-09T22:46:47.582Z,19.08
2023-02-09T22:49:18.199Z,19.58
2023-02-09T22:51:47.963Z,20.52
2023-02-09T22:54:18.230Z,19.25
2023-02-09T22:56:48.295Z,19.13
2023-02-09T22:59:17.192Z,19.42
2023-02-09T23:01:46.289Z,19.95
2023-02-09T23:04:14.593Z,19.27
2023-02-09T23:06:42.690Z,19.27
2023-02-09T23:09:12.516Z,19.60
2023-02-09T23:11:41.008Z,18.85
2023-02-09T23:14:11.498Z,17.95
2023-02-09T23:16:41.596Z,18.63
2023-02-09T23:19:13.148Z,19.02
2023-02-09T23:21:43.157Z,18.15
2023-02-09T23:24:12.232Z,17.27
2023-02-09T23:26:40.763Z,19.10
2023-02-09T23:29:12.509Z,18.33
2023-02-09T23:31:41.166Z,19.63
2023-02-09T23:34:11.558Z,18.48
2023-02-09T23:36:39.731Z,18.20
2023-02-09T23:39:08.160Z,19.02
2023-02-09T23:41:36.836Z,20.58
2023-02-09T23:44:05.197Z,20.27
2023-02-09T23:46:37.468Z,19.60
2023-02-09T23:49:06.004Z,21.02
2023-02-09T23:51:36.633Z,20.35
2023-02-09T23:54:07.440Z,20.55
2023-02-09T23:56:37.954Z,21.83
2023-02-09T23:59:07.680Z,20.25
